Time;durP1;ratioP1;P1;durP2;ratioP2;P2;SDS_P1;SDS_P2;PMS_P1;PMS_P2;Temp;Humidity;BMP_temperature;BMP_pressure;BME280_temperature;BME280_humidity;BME280_pressure;Samples;Min_cycle;Max_cycle;Signal;HPM_P1;HPM_P2
2022/01/16 00:04:24;;;;;;;10.35;9.10;;;5.10;99.90;;;;;;5013277;28;20178;-74
2022/01/16 00:06:50;;;;;;;11.30;9.85;;;5.10;99.90;;;;;;5012357;28;20593;-74
2022/01/16 00:09:16;;;;;;;11.50;9.68;;;5.10;99.90;;;;;;5013010;28;20193;-74
2022/01/16 00:11:42;;;;;;;10.67;9.50;;;5.10;99.90;;;;;;5013145;28;20174;-74
2022/01/16 00:14:09;;;;;;;11.15;9.73;;;5.10;99.90;;;;;;5024151;28;20635;-74
2022/01/16 00:16:35;;;;;;;11.27;9.60;;;5.10;99.90;;;;;;5018299;28;20273;-74
2022/01/16 00:19:02;;;;;;;13.77;11.05;;;5.10;99.90;;;;;;5012990;28;21087;-74
2022/01/16 00:21:33;;;;;;;11.30;10.02;;;5.10;99.90;;;;;;4995453;28;20265;-75
2022/01/16 00:23:59;;;;;;;11.85;10.50;;;5.00;99.90;;;;;;5013026;28;20214;-75
2022/01/16 00:26:25;;;;;;;12.32;10.98;;;5.10;99.90;;;;;;5012565;28;20201;-75
2022/01/16 00:28:51;;;;;;;12.77;10.23;;;5.00;99.90;;;;;;5028723;28;20272;-74
2022/01/16 00:31:19;;;;;;;11.05;9.82;;;5.00;99.90;;;;;;5031366;28;20565;-74
2022/01/16 00:33:45;;;;;;;12.75;10.60;;;5.10;99.90;;;;;;5032414;28;20169;-74
2022/01/16 00:36:17;;;;;;;10.65;9.55;;;5.00;99.90;;;;;;5032582;28;20538;-74
2022/01/16 00:38:45;;;;;;;13.52;12.13;;;5.00;99.90;;;;;;5014740;28;20173;-74
2022/01/16 00:41:11;;;;;;;12.77;11.02;;;5.00;99.90;;;;;;5032283;28;20300;-74
2022/01/16 00:43:37;;;;;;;11.20;9.52;;;5.00;99.90;;;;;;5031267;28;20178;-74
2022/01/16 00:46:03;;;;;;;13.57;10.83;;;5.00;99.90;;;;;;5031095;28;20576;-74
2022/01/16 00:48:29;;;;;;;11.37;10.03;;;5.10;99.90;;;;;;5030933;28;20249;-74
2022/01/16 00:50:55;;;;;;;12.70;9.50;;;5.10;99.90;;;;;;5014318;28;20604;-74
2022/01/16 00:53:20;;;;;;;11.60;8.93;;;5.10;99.90;;;;;;5015228;28;20564;-73
2022/01/16 00:55:46;;;;;;;9.70;8.70;;;5.10;99.90;;;;;;5032020;28;20620;-74
2022/01/16 00:58:12;;;;;;;11.00;9.17;;;5.10;99.90;;;;;;5032004;28;20181;-74
2022/01/16 01:00:38;;;;;;;10.50;9.40;;;5.20;99.90;;;;;;5030717;28;20186;-75
2022/01/16 01:03:06;;;;;;;8.70;7.70;;;5.20;99.90;;;;;;5032107;28;20166;-75
2022/01/16 01:05:33;;;;;;;9.40;8.40;;;5.30;99.90;;;;;;5030587;28;20576;-75
2022/01/16 01:07:58;;;;;;;8.63;7.82;;;5.30;99.90;;;;;;5031963;28;20185;-75
2022/01/16 01:10:30;;;;;;;8.60;6.73;;;5.40;99.90;;;;;;5031691;28;20197;-75
2022/01/16 01:13:07;;;;;;;8.68;7.80;;;5.40;99.90;;;;;;5031869;28;20178;-75
2022/01/16 01:15:41;;;;;;;10.15;8.43;;;5.40;99.90;;;;;;5031782;28;20209;-75
2022/01/16 01:18:07;;;;;;;9.35;8.45;;;5.50;99.90;;;;;;5031891;28;20165;-76
2022/01/16 01:20:34;;;;;;;10.55;8.93;;;5.40;99.90;;;;;;5030406;28;20553;-75
2022/01/16 01:23:00;;;;;;;9.13;7.15;;;5.40;99.90;;;;;;5030578;28;20204;-76
2022/01/16 01:25:26;;;;;;;8.70;7.27;;;5.40;99.90;;;;;;5031701;28;20162;-75
2022/01/16 01:27:51;;;;;;;7.90;6.73;;;5.40;99.90;;;;;;5031705;28;20169;-75
2022/01/16 01:30:19;;;;;;;7.70;7.00;;;5.40;99.90;;;;;;5032623;28;20634;-75
2022/01/16 01:32:47;;;;;;;8.63;7.72;;;5.40;99.90;;;;;;5032121;28;20209;-75
2022/01/16 01:35:16;;;;;;;7.88;6.90;;;5.50;99.90;;;;;;5031874;28;20244;-75
2022/01/16 01:37:43;;;;;;;9.13;7.50;;;5.50;99.90;;;;;;5030524;28;20166;-75
2022/01/16 01:40:12;;;;;;;9.20;8.18;;;5.50;99.90;;;;;;5037592;28;20185;-74
2022/01/16 01:42:45;;;;;;;10.35;9.35;;;5.60;99.90;;;;;;5038441;28;20176;-74
2022/01/16 01:51:03;;;;;;;11.80;9.15;;;5.70;99.90;;;;;;5038266;28;20173;-75
2022/01/16 01:51:03;;;;;;;8.75;7.72;;;5.70;99.90;;;;;;5020670;28;20206;-75
2022/01/16 01:53:29;;;;;;;8.95;8.05;;;5.70;99.90;;;;;;5018416;28;20173;-75
2022/01/16 01:55:55;;;;;;;9.77;8.73;;;5.80;99.90;;;;;;5017004;28;20202;-75
2022/01/16 01:58:20;;;;;;;7.97;7.17;;;5.90;99.90;;;;;;5018136;28;20317;-75
2022/01/16 02:00:46;;;;;;;8.13;7.33;;;5.90;99.90;;;;;;5018076;28;20524;-75
2022/01/16 02:05:40;;;;;;;8.40;6.97;;;6.00;99.90;;;;;;5016956;28;20949;-75
2022/01/16 02:08:06;;;;;;;9.63;8.13;;;6.10;99.90;;;;;;5020038;28;20178;-74
2022/01/16 02:10:32;;;;;;;7.85;7.05;;;6.10;99.90;;;;;;5016707;28;20284;-75
2022/01/16 02:13:03;;;;;;;8.05;6.45;;;6.20;99.90;;;;;;5018381;28;20257;-75
2022/01/16 02:28:00;;;;;;;6.60;5.82;;;6.20;99.90;;;;;;5026627;28;20284;-75
2022/01/16 02:31:32;;;;;;;8.77;7.73;;;6.20;99.90;;;;;;5039072;28;20169;-74
2022/01/16 02:36:48;;;;;;;9.13;7.68;;;6.20;99.90;;;;;;5037953;28;20173;-75
2022/01/16 02:39:15;;;;;;;10.23;7.82;;;6.20;99.90;;;;;;5018023;28;20583;-75
2022/01/16 02:41:44;;;;;;;9.98;6.55;;;6.10;99.90;;;;;;5018019;28;20590;-75
2022/01/16 02:44:28;;;;;;;10.13;8.25;;;6.00;99.90;;;;;;5021974;28;20181;-75
2022/01/16 02:46:58;;;;;;;10.45;8.00;;;5.90;99.90;;;;;;5038447;28;20181;-75
2022/01/16 02:49:25;;;;;;;9.00;7.35;;;5.80;99.90;;;;;;5037653;28;20197;-75
2022/01/16 02:52:01;;;;;;;9.30;7.65;;;5.80;99.90;;;;;;5015627;28;20193;-74
2022/01/16 02:54:28;;;;;;;11.10;8.65;;;5.70;99.90;;;;;;5034347;28;20216;-74
2022/01/16 02:56:54;;;;;;;12.18;9.13;;;5.70;99.90;;;;;;5034523;28;20196;-74
2022/01/16 02:59:21;;;;;;;11.13;8.70;;;5.70;99.90;;;;;;5033036;28;20214;-74
2022/01/16 03:01:48;;;;;;;10.60;9.50;;;5.70;99.90;;;;;;5034374;28;20553;-74
2022/01/16 03:04:15;;;;;;;14.77;10.18;;;5.70;99.90;;;;;;5034327;28;20170;-75
2022/01/16 03:06:41;;;;;;;11.48;9.43;;;5.70;99.90;;;;;;5034300;28;20173;-75
2022/01/16 03:09:08;;;;;;;8.97;7.30;;;5.60;99.90;;;;;;5034144;28;20193;-75
2022/01/16 03:11:41;;;;;;;11.88;9.00;;;5.60;99.90;;;;;;5032945;28;20177;-74
2022/01/16 03:14:12;;;;;;;15.50;10.70;;;5.60;99.90;;;;;;5034110;28;20204;-75
2022/01/16 03:16:41;;;;;;;15.05;9.60;;;5.70;99.90;;;;;;5034051;28;20177;-75
2022/01/16 03:21:54;;;;;;;13.27;10.07;;;5.70;99.90;;;;;;5034757;28;20169;-74
2022/01/16 03:24:22;;;;;;;11.40;9.32;;;5.70;99.90;;;;;;5033826;28;20173;-74
2022/01/16 03:26:48;;;;;;;11.45;8.38;;;5.70;99.90;;;;;;5033930;28;20529;-75
2022/01/16 03:29:14;;;;;;;10.43;8.80;;;5.70;99.90;;;;;;5033566;28;20200;-75
2022/01/16 03:31:39;;;;;;;11.90;8.67;;;5.70;99.90;;;;;;5033861;28;20722;-75
2022/01/16 03:34:05;;;;;;;12.30;9.67;;;5.80;99.90;;;;;;5033453;28;20170;-75
2022/01/16 03:36:31;;;;;;;16.00;11.70;;;5.90;99.90;;;;;;5032473;28;20249;-75
2022/01/16 03:38:56;;;;;;;16.03;10.37;;;6.00;99.90;;;;;;5033499;28;20557;-75
2022/01/16 03:41:26;;;;;;;17.10;11.13;;;6.00;99.90;;;;;;5033589;28;20173;-75
2022/01/16 03:43:53;;;;;;;13.85;10.70;;;6.10;99.90;;;;;;5016271;28;20221;-75
2022/01/16 03:46:18;;;;;;;11.70;10.00;;;6.10;99.90;;;;;;5026264;28;20166;-75
2022/01/16 03:48:44;;;;;;;13.97;11.00;;;6.20;99.90;;;;;;5024183;28;20192;-75
2022/01/16 03:51:10;;;;;;;19.37;12.70;;;6.20;99.90;;;;;;5013522;28;20169;-75
2022/01/16 03:53:36;;;;;;;17.17;12.00;;;6.30;99.90;;;;;;5013733;28;20266;-75
2022/01/16 03:56:01;;;;;;;14.97;12.90;;;6.30;99.90;;;;;;5012240;28;20285;-75
2022/01/16 03:58:27;;;;;;;15.00;11.97;;;6.40;99.90;;;;;;5014504;28;20213;-75
2022/01/16 04:00:53;;;;;;;19.20;13.43;;;6.40;99.90;;;;;;5022562;28;20604;-75
2022/01/16 04:03:19;;;;;;;15.93;12.97;;;6.50;99.90;;;;;;5031913;28;20588;-75
2022/01/16 04:05:44;;;;;;;17.13;13.13;;;6.50;99.90;;;;;;5033188;28;20702;-75
2022/01/16 04:08:10;;;;;;;13.70;12.03;;;6.50;99.90;;;;;;5012146;28;20324;-75
2022/01/16 04:10:36;;;;;;;15.47;12.70;;;6.50;99.90;;;;;;5020019;28;20551;-75
2022/01/16 04:13:03;;;;;;;17.07;14.13;;;6.60;99.90;;;;;;5033116;28;20165;-75
2022/01/16 04:15:32;;;;;;;20.00;14.57;;;6.60;99.90;;;;;;5032939;28;20232;-75
2022/01/16 04:17:59;;;;;;;18.27;13.10;;;6.60;99.90;;;;;;5033009;28;20170;-75
2022/01/16 04:20:25;;;;;;;18.30;14.27;;;6.60;99.90;;;;;;5032587;28;20196;-75
2022/01/16 04:22:51;;;;;;;19.07;14.77;;;6.60;99.90;;;;;;5032746;28;20166;-75
2022/01/16 04:25:18;;;;;;;17.07;13.87;;;6.70;99.90;;;;;;5032629;28;20664;-75
2022/01/16 04:27:44;;;;;;;19.23;14.40;;;6.70;99.90;;;;;;5031585;28;20173;-75
2022/01/16 04:30:10;;;;;;;20.10;14.70;;;6.70;99.90;;;;;;5032429;28;20233;-75
2022/01/16 04:32:36;;;;;;;19.88;13.95;;;6.70;99.90;;;;;;5031358;28;20177;-75
2022/01/16 04:35:03;;;;;;;18.87;14.70;;;6.70;99.90;;;;;;5032682;28;20300;-75
2022/01/16 04:37:28;;;;;;;19.67;15.07;;;6.70;99.90;;;;;;5031245;28;20575;-75
2022/01/16 04:39:59;;;;;;;18.43;12.67;;;6.70;99.90;;;;;;5032215;28;20190;-75
2022/01/16 04:45:09;;;;;;;18.73;14.63;;;6.70;99.90;;;;;;5032513;28;20542;-75
2022/01/16 04:47:35;;;;;;;19.77;14.43;;;6.80;99.90;;;;;;5032207;28;20177;-75
2022/01/16 04:50:01;;;;;;;18.33;14.60;;;6.80;99.90;;;;;;5021912;28;20213;-75
2022/01/16 04:52:26;;;;;;;21.07;15.70;;;6.80;99.90;;;;;;5026165;28;20188;-75
2022/01/16 04:54:52;;;;;;;17.83;13.33;;;6.80;99.90;;;;;;5014586;28;20429;-75
2022/01/16 04:57:18;;;;;;;14.70;11.10;;;6.70;99.90;;;;;;5032261;28;20260;-75
2022/01/16 04:59:44;;;;;;;16.07;11.73;;;6.60;99.90;;;;;;5032046;28;20185;-75
2022/01/16 05:02:10;;;;;;;13.40;10.43;;;6.60;99.90;;;;;;5027679;28;20223;-74
2022/01/16 05:04:36;;;;;;;12.10;9.53;;;6.60;99.90;;;;;;5018981;28;20272;-74
2022/01/16 05:07:01;;;;;;;14.63;10.60;;;6.60;99.90;;;;;;5031960;28;20165;-74
2022/01/16 05:09:27;;;;;;;13.17;10.80;;;6.60;99.90;;;;;;5017570;28;20778;-75
2022/01/16 05:11:56;;;;;;;13.77;9.97;;;6.60;99.90;;;;;;5022262;28;20653;-75
2022/01/16 05:17:06;;;;;;;11.35;9.07;;;6.60;99.90;;;;;;5032145;28;20162;-74
2022/01/16 05:19:32;;;;;;;11.33;9.30;;;6.60;99.90;;;;;;5031839;28;20235;-74
2022/01/16 05:21:58;;;;;;;10.97;9.40;;;6.60;99.90;;;;;;5032195;28;20165;-74
2022/01/16 05:24:28;;;;;;;11.07;8.63;;;6.60;99.90;;;;;;5027122;28;20669;-75
2022/01/16 05:26:53;;;;;;;11.35;9.48;;;6.70;99.90;;;;;;5011231;28;20181;-74
2022/01/16 05:29:19;;;;;;;16.07;9.87;;;6.60;99.90;;;;;;5012533;28;20850;-75
2022/01/16 05:31:45;;;;;;;12.83;9.60;;;6.70;99.90;;;;;;5012318;28;20173;-74
2022/01/16 05:34:18;;;;;;;11.43;9.57;;;6.70;99.90;;;;;;5014097;28;20610;-75
2022/01/16 05:36:44;;;;;;;10.55;9.45;;;6.70;99.90;;;;;;5031632;28;20182;-74
2022/01/16 05:39:11;;;;;;;14.02;11.40;;;6.70;99.90;;;;;;5037161;28;20204;-74
2022/01/16 05:41:37;;;;;;;12.82;10.45;;;6.60;99.90;;;;;;5037951;28;20169;-75
2022/01/16 05:44:03;;;;;;;15.93;12.30;;;6.60;99.90;;;;;;5035639;28;20296;-75
2022/01/16 05:46:29;;;;;;;17.42;13.48;;;6.60;99.90;;;;;;5048158;28;20153;-74
2022/01/16 05:48:55;;;;;;;15.52;13.45;;;6.70;99.90;;;;;;5027420;28;20197;-74
2022/01/16 05:51:21;;;;;;;14.50;12.40;;;6.70;99.90;;;;;;5014859;28;20170;-74
2022/01/16 05:53:48;;;;;;;17.43;12.17;;;6.70;99.90;;;;;;5013038;28;20179;-74
2022/01/16 05:56:13;;;;;;;17.88;13.18;;;6.70;99.90;;;;;;5012904;28;20206;-74
2022/01/16 05:58:40;;;;;;;18.57;12.27;;;6.70;99.90;;;;;;5012797;28;20166;-74
2022/01/16 06:01:06;;;;;;;16.63;13.73;;;6.70;99.90;;;;;;5011469;28;20193;-74
2022/01/16 06:03:32;;;;;;;16.03;12.40;;;6.70;99.90;;;;;;5012009;28;20167;-74
2022/01/16 06:05:58;;;;;;;21.30;13.50;;;6.70;99.90;;;;;;5012003;28;20195;-74
2022/01/16 06:08:24;;;;;;;20.85;14.35;;;6.70;99.90;;;;;;5011945;28;20193;-74
2022/01/16 06:10:50;;;;;;;19.97;14.90;;;6.70;99.90;;;;;;5011589;28;20272;-74
2022/01/16 06:13:16;;;;;;;20.05;15.55;;;6.70;99.90;;;;;;5011737;28;20166;-74
2022/01/16 06:15:42;;;;;;;20.60;14.40;;;6.70;99.90;;;;;;5011565;28;20198;-74
2022/01/16 06:18:08;;;;;;;20.60;14.50;;;6.70;99.90;;;;;;5011660;28;20707;-74
2022/01/16 06:20:34;;;;;;;20.60;14.40;;;6.70;99.90;;;;;;5011545;28;20222;-74
2022/01/16 06:23:00;;;;;;;21.27;15.48;;;6.70;99.90;;;;;;5010486;28;20170;-75
2022/01/16 06:25:26;;;;;;;18.25;15.00;;;6.70;99.90;;;;;;5010893;28;20265;-74
2022/01/16 06:27:52;;;;;;;22.85;16.88;;;6.70;99.90;;;;;;5015535;28;20297;-74
2022/01/16 06:30:19;;;;;;;22.73;17.17;;;6.70;99.90;;;;;;5013715;28;20288;-75
2022/01/16 06:32:45;;;;;;;20.58;16.48;;;6.70;99.90;;;;;;5015182;28;20561;-75
2022/01/16 06:35:13;;;;;;;22.80;16.53;;;6.70;99.90;;;;;;5014961;28;20332;-75
2022/01/16 06:37:39;;;;;;;24.85;18.35;;;6.70;99.90;;;;;;5015247;28;20165;-75
2022/01/16 06:40:06;;;;;;;23.73;16.73;;;6.70;99.90;;;;;;5013786;28;20202;-74
2022/01/16 06:42:32;;;;;;;24.90;18.48;;;6.60;99.90;;;;;;5013686;28;20174;-75
2022/01/16 06:44:59;;;;;;;28.92;19.50;;;6.60;99.90;;;;;;5015078;28;20209;-74
2022/01/16 06:47:24;;;;;;;25.55;20.00;;;6.70;99.90;;;;;;5015033;28;20564;-75
2022/01/16 06:49:50;;;;;;;25.70;20.80;;;6.70;99.90;;;;;;5014827;28;20194;-75
2022/01/16 06:52:16;;;;;;;25.00;17.33;;;6.70;99.90;;;;;;5015000;28;21137;-75
2022/01/16 06:54:42;;;;;;;24.80;19.13;;;6.70;99.90;;;;;;5013516;28;20221;-75
2022/01/16 06:57:08;;;;;;;32.47;20.77;;;6.70;99.90;;;;;;5015082;28;20608;-75
2022/01/16 06:59:38;;;;;;;29.35;20.45;;;6.80;99.90;;;;;;5021336;28;20205;-75
2022/01/16 07:02:05;;;;;;;33.13;22.17;;;6.80;99.90;;;;;;5033567;28;20211;-75
2022/01/16 07:04:31;;;;;;;30.80;21.90;;;6.80;99.90;;;;;;5037254;28;20606;-74
2022/01/16 07:06:57;;;;;;;29.07;22.70;;;6.90;99.90;;;;;;5035584;28;20261;-75
2022/01/16 07:09:22;;;;;;;31.77;22.50;;;6.90;99.90;;;;;;5033300;28;20596;-74
2022/01/16 07:11:48;;;;;;;30.73;21.00;;;6.80;99.90;;;;;;5034759;28;20174;-74
2022/01/16 07:14:14;;;;;;;29.03;21.83;;;6.90;99.90;;;;;;5034033;28;20637;-74
2022/01/16 07:16:39;;;;;;;30.53;22.80;;;6.90;99.90;;;;;;5025415;28;20281;-74
2022/01/16 07:19:05;;;;;;;25.80;21.30;;;6.90;99.90;;;;;;5018024;28;20186;-74
2022/01/16 07:21:31;;;;;;;27.53;21.70;;;7.00;99.90;;;;;;5034576;28;20170;-75
2022/01/16 07:23:56;;;;;;;30.10;22.23;;;7.00;99.90;;;;;;5035287;28;20587;-75
2022/01/16 07:26:23;;;;;;;30.90;22.43;;;7.00;99.90;;;;;;5028729;28;20186;-75
2022/01/16 07:28:49;;;;;;;26.83;19.95;;;7.00;99.90;;;;;;5014154;28;20177;-74
2022/01/16 07:31:14;;;;;;;29.63;21.83;;;7.10;99.90;;;;;;5014144;28;20163;-74
2022/01/16 07:33:40;;;;;;;30.20;21.73;;;7.10;99.90;;;;;;5014081;28;20815;-74
2022/01/16 07:36:06;;;;;;;30.07;23.20;;;7.10;99.90;;;;;;5013472;28;20193;-74
2022/01/16 07:38:32;;;;;;;28.10;20.57;;;7.10;99.90;;;;;;5013893;28;20273;-74
2022/01/16 07:40:58;;;;;;;33.87;22.90;;;7.10;99.90;;;;;;5015231;28;20269;-74
2022/01/16 07:43:24;;;;;;;27.55;21.50;;;7.20;99.90;;;;;;5012649;28;20173;-74
2022/01/16 07:45:49;;;;;;;30.70;23.10;;;7.20;99.90;;;;;;5013800;28;20550;-74
2022/01/16 07:48:15;;;;;;;33.73;22.60;;;7.20;99.90;;;;;;5012559;28;20252;-74
2022/01/16 07:50:41;;;;;;;28.10;21.80;;;7.20;99.90;;;;;;5013634;28;20197;-75
2022/01/16 07:53:07;;;;;;;28.10;21.92;;;7.20;99.90;;;;;;5012425;28;20178;-76
2022/01/16 07:55:33;;;;;;;28.38;21.10;;;7.30;99.90;;;;;;5012391;28;20260;-74
2022/01/16 07:57:59;;;;;;;29.10;20.83;;;7.30;99.90;;;;;;5022246;28;20165;-74
2022/01/16 08:00:26;;;;;;;33.80;22.67;;;7.30;99.90;;;;;;5033167;28;20548;-74
2022/01/16 08:02:52;;;;;;;26.73;20.70;;;7.30;99.90;;;;;;5032406;28;20602;-74
2022/01/16 08:05:19;;;;;;;29.02;21.02;;;7.30;99.90;;;;;;5013366;28;20174;-74
2022/01/16 08:07:45;;;;;;;29.90;20.67;;;7.40;99.90;;;;;;5013316;28;20521;-75
2022/01/16 08:10:12;;;;;;;29.10;21.27;;;7.40;99.90;;;;;;5013027;28;20294;-75
2022/01/16 08:12:38;;;;;;;31.58;23.20;;;7.40;99.90;;;;;;5020242;28;20256;-75
2022/01/16 08:15:06;;;;;;;29.85;22.08;;;7.40;99.90;;;;;;5030555;28;20234;-74
2022/01/16 08:17:33;;;;;;;31.05;23.98;;;7.40;99.90;;;;;;5014211;28;20184;-74
2022/01/16 08:19:59;;;;;;;33.60;24.30;;;7.40;99.90;;;;;;5012811;28;20214;-74
2022/01/16 08:22:25;;;;;;;28.70;21.75;;;7.50;99.90;;;;;;5011893;28;20170;-75
2022/01/16 08:24:51;;;;;;;35.53;21.90;;;7.50;99.90;;;;;;5013058;28;20163;-75
2022/01/16 08:27:17;;;;;;;29.70;22.00;;;7.50;99.90;;;;;;5012977;28;20562;-75
2022/01/16 08:29:43;;;;;;;30.43;21.80;;;7.40;99.90;;;;;;5011256;28;20228;-75
2022/01/16 08:32:09;;;;;;;30.60;22.97;;;7.50;99.90;;;;;;5023844;28;20722;-74
2022/01/16 08:34:35;;;;;;;30.63;23.13;;;7.50;99.90;;;;;;5032425;28;20966;-75
2022/01/16 08:37:01;;;;;;;30.77;23.63;;;7.50;99.90;;;;;;5032584;28;20728;-75
2022/01/16 08:39:27;;;;;;;27.43;20.70;;;7.50;99.90;;;;;;5032409;28;20190;-74
2022/01/16 08:41:53;;;;;;;29.15;22.58;;;7.50;99.90;;;;;;5032450;28;20672;-74
2022/01/16 08:44:19;;;;;;;27.87;22.20;;;7.50;99.90;;;;;;5032423;28;20257;-75
2022/01/16 08:46:46;;;;;;;28.77;21.13;;;7.50;99.90;;;;;;5032444;28;20572;-75
2022/01/16 08:49:12;;;;;;;27.13;21.50;;;7.60;99.90;;;;;;5011715;28;20264;-75
2022/01/16 08:51:38;;;;;;;28.55;21.15;;;7.60;99.90;;;;;;5012802;28;20229;-74
2022/01/16 08:54:03;;;;;;;26.20;21.13;;;7.60;99.90;;;;;;5012943;28;20264;-74
2022/01/16 08:56:29;;;;;;;27.50;22.50;;;7.60;99.90;;;;;;5013620;28;20245;-74
2022/01/16 08:58:56;;;;;;;30.83;22.45;;;7.60;99.90;;;;;;5011412;28;20170;-75
2022/01/16 09:01:22;;;;;;;25.80;20.50;;;7.60;99.90;;;;;;5011015;28;20192;-75
2022/01/16 09:03:48;;;;;;;27.08;19.63;;;7.70;99.90;;;;;;5012331;28;20917;-77
2022/01/16 09:06:16;;;;;;;27.50;20.10;;;7.70;99.90;;;;;;5011311;28;20175;-75
2022/01/16 09:08:42;;;;;;;28.60;20.85;;;7.70;99.90;;;;;;5012399;28;20180;-75
2022/01/16 09:11:07;;;;;;;26.33;21.30;;;7.70;99.90;;;;;;5012313;28;20594;-74
2022/01/16 09:13:34;;;;;;;28.53;21.77;;;7.70;99.90;;;;;;5012327;28;20184;-75
2022/01/16 09:16:00;;;;;;;25.70;20.58;;;7.70;99.90;;;;;;5012205;28;20289;-75
2022/01/16 09:18:27;;;;;;;29.48;22.25;;;7.70;99.90;;;;;;5012223;28;20229;-75
2022/01/16 09:20:53;;;;;;;28.45;21.75;;;7.80;99.90;;;;;;5010767;28;20581;-74
2022/01/16 09:23:19;;;;;;;25.25;19.05;;;7.80;99.90;;;;;;5012153;28;20178;-75
2022/01/16 09:25:45;;;;;;;30.45;20.90;;;7.80;99.90;;;;;;5012315;28;20872;-74
2022/01/16 09:28:11;;;;;;;27.30;20.27;;;7.80;99.90;;;;;;5011941;28;20181;-74
2022/01/16 09:30:37;;;;;;;27.90;20.20;;;7.80;99.90;;;;;;5011927;28;20190;-74
2022/01/16 09:33:03;;;;;;;27.30;20.27;;;7.80;99.90;;;;;;5022855;28;20182;-74
2022/01/16 09:35:33;;;;;;;28.80;20.27;;;7.90;99.90;;;;;;5030435;28;21236;-74
2022/01/16 09:37:59;;;;;;;27.63;20.83;;;7.90;99.90;;;;;;5031581;28;20173;-74
2022/01/16 09:40:25;;;;;;;25.63;19.48;;;7.90;99.90;;;;;;5031490;28;20247;-74
2022/01/16 09:42:52;;;;;;;24.20;18.90;;;8.00;99.90;;;;;;5029888;28;20639;-74
2022/01/16 09:45:19;;;;;;;29.42;20.45;;;8.00;99.90;;;;;;5011816;28;20170;-74
2022/01/16 09:47:47;;;;;;;25.38;19.35;;;8.10;99.90;;;;;;5012127;28;20649;-74
2022/01/16 09:50:16;;;;;;;28.33;19.50;;;8.10;99.90;;;;;;5027126;28;20241;-74
2022/01/16 09:52:45;;;;;;;24.60;18.30;;;8.20;99.90;;;;;;5011894;28;20182;-75
2022/01/16 09:55:12;;;;;;;23.75;19.33;;;8.20;99.90;;;;;;5011812;28;20205;-74
2022/01/16 09:57:38;;;;;;;24.00;20.92;;;8.30;99.90;;;;;;5011929;28;20170;-74
2022/01/16 10:00:31;;;;;;;26.30;18.98;;;8.30;99.90;;;;;;5011663;28;20201;-76
2022/01/16 10:02:57;;;;;;;23.90;18.70;;;8.30;99.90;;;;;;5023794;28;20197;-75
2022/01/16 10:05:29;;;;;;;24.00;18.50;;;8.40;99.90;;;;;;5026879;28;20236;-78
2022/01/16 10:07:56;;;;;;;29.70;19.33;;;8.40;99.90;;;;;;5026154;28;20205;-78
2022/01/16 10:10:29;;;;;;;26.80;17.38;;;8.50;99.90;;;;;;5026889;28;20202;-78
2022/01/16 10:13:03;;;;;;;25.30;18.15;;;8.50;99.90;;;;;;5003367;28;20203;-76
2022/01/16 10:15:30;;;;;;;23.38;16.17;;;8.50;99.90;;;;;;5023145;28;20276;-78
2022/01/16 10:17:58;;;;;;;23.65;17.55;;;8.60;99.90;;;;;;5024458;28;20182;-75
2022/01/16 10:20:25;;;;;;;27.52;17.90;;;8.60;99.90;;;;;;5008475;28;20197;-76
2022/01/16 10:22:57;;;;;;;25.50;18.95;;;8.60;99.90;;;;;;5024618;28;20181;-76
2022/01/16 10:25:49;;;;;;;27.05;19.65;;;8.70;99.90;;;;;;5031873;28;20265;-76
2022/01/16 10:28:23;;;;;;;27.02;17.38;;;8.80;99.90;;;;;;5022388;28;20202;-78
2022/01/16 10:30:54;;;;;;;29.60;17.67;;;8.90;99.90;;;;;;5022750;28;20210;-76
2022/01/16 10:33:24;;;;;;;23.88;17.33;;;8.90;99.90;;;;;;5026400;28;20192;-78
2022/01/16 10:35:52;;;;;;;28.85;19.05;;;9.00;99.90;;;;;;5024413;28;20209;-78
2022/01/16 10:38:21;;;;;;;24.92;17.77;;;9.00;99.90;;;;;;5023011;28;20197;-79
2022/01/16 10:40:50;;;;;;;28.35;19.90;;;8.90;99.90;;;;;;5022510;28;20238;-76
2022/01/16 10:43:37;;;;;;;26.00;18.63;;;8.90;99.90;;;;;;5025087;28;20174;-78
2022/01/16 10:46:03;;;;;;;22.80;16.98;;;8.90;99.90;;;;;;5030803;28;20272;-76
2022/01/16 10:48:28;;;;;;;24.97;18.73;;;8.90;99.90;;;;;;5015908;28;20274;-76
2022/01/16 10:50:55;;;;;;;26.50;17.07;;;8.90;99.90;;;;;;5022117;28;20608;-78
2022/01/16 10:53:29;;;;;;;23.02;16.90;;;9.00;99.90;;;;;;5013244;28;20549;-76
2022/01/16 10:55:59;;;;;;;23.10;16.55;;;9.00;99.90;;;;;;5023641;28;20209;-79
2022/01/16 10:59:08;;;;;;;22.35;16.63;;;9.00;99.90;;;;;;5004674;28;20190;-78
2022/01/16 11:01:34;;;;;;;25.55;17.30;;;9.00;99.90;;;;;;5018942;28;20216;-78
2022/01/16 11:04:01;;;;;;;24.07;16.67;;;9.00;99.90;;;;;;5030475;28;20592;-78
2022/01/16 11:06:27;;;;;;;21.52;17.15;;;9.10;99.90;;;;;;5022702;28;20182;-79
2022/01/16 11:08:57;;;;;;;24.13;17.67;;;9.10;99.90;;;;;;5030825;28;20177;-79
2022/01/16 11:11:24;;;;;;;26.30;17.73;;;9.10;99.90;;;;;;5021070;28;20178;-79
2022/01/16 11:13:50;;;;;;;28.75;23.95;;;9.10;99.90;;;;;;5033717;28;20729;-79
2022/01/16 11:16:19;;;;;;;33.63;21.92;;;9.00;99.90;;;;;;5021999;28;20201;-79
2022/01/16 11:18:49;;;;;;;32.63;25.65;;;9.00;99.90;;;;;;5034080;28;21049;-78
2022/01/16 11:21:20;;;;;;;32.42;24.98;;;9.00;99.90;;;;;;5017850;28;20811;-79
2022/01/16 11:26:17;;;;;;;32.08;23.15;;;9.10;99.90;;;;;;5028441;28;20488;-79
2022/01/16 11:28:44;;;;;;;32.22;22.73;;;9.10;99.90;;;;;;5018452;28;20723;-77
2022/01/16 11:31:12;;;;;;;30.45;24.70;;;9.10;99.90;;;;;;5032088;28;20710;-78
2022/01/16 11:33:39;;;;;;;30.52;25.08;;;9.10;99.90;;;;;;4999753;28;20707;-78
2022/01/16 11:36:20;;;;;;;34.28;22.27;;;9.10;99.90;;;;;;5036246;28;20197;-78
2022/01/16 11:38:50;;;;;;;31.27;23.15;;;9.10;99.90;;;;;;4999957;28;20704;-77
2022/01/16 11:41:18;;;;;;;32.58;22.85;;;9.10;99.90;;;;;;5028125;28;20224;-76
2022/01/16 11:43:52;;;;;;;29.17;22.25;;;9.10;99.90;;;;;;5033110;28;20269;-77
2022/01/16 11:46:19;;;;;;;30.20;22.05;;;9.20;99.90;;;;;;5022841;28;20193;-78
2022/01/16 11:48:47;;;;;;;30.85;23.00;;;9.20;99.90;;;;;;5021341;28;20937;-76
2022/01/16 11:51:31;;;;;;;32.45;21.60;;;9.20;99.90;;;;;;5021238;28;20235;-77
2022/01/16 11:54:11;;;;;;;25.60;18.73;;;9.20;99.90;;;;;;5022803;28;20583;-77
2022/01/16 11:56:42;;;;;;;25.05;18.77;;;9.20;99.90;;;;;;5024756;28;20173;-76
2022/01/16 11:59:16;;;;;;;29.73;19.95;;;9.30;99.90;;;;;;5024939;28;20225;-77
2022/01/16 12:02:08;;;;;;;26.85;19.27;;;9.30;99.90;;;;;;5023638;28;20182;-76
2022/01/16 12:04:33;;;;;;;26.95;19.40;;;9.40;99.90;;;;;;5004866;28;20193;-77
2022/01/16 12:07:05;;;;;;;31.70;18.63;;;9.50;99.90;;;;;;5022894;28;20174;-77
2022/01/16 12:09:34;;;;;;;28.08;20.55;;;9.60;99.90;;;;;;5023003;28;20216;-77
2022/01/16 12:12:01;;;;;;;27.17;20.30;;;9.60;99.90;;;;;;5021142;28;20173;-77
2022/01/16 12:14:56;;;;;;;28.50;21.40;;;9.70;99.90;;;;;;5029893;28;20194;-77
2022/01/16 12:17:41;;;;;;;31.40;20.20;;;9.70;99.90;;;;;;5020643;28;20542;-77
2022/01/16 12:20:17;;;;;;;28.20;19.45;;;9.70;99.90;;;;;;5014497;28;20263;-76
2022/01/16 12:22:52;;;;;;;27.70;21.02;;;9.60;99.90;;;;;;5023607;28;20185;-76
2022/01/16 12:25:23;;;;;;;23.23;18.77;;;9.60;99.90;;;;;;5021064;28;20196;-76
2022/01/16 12:28:02;;;;;;;30.05;21.00;;;9.50;99.90;;;;;;5020926;28;20186;-76
2022/01/16 12:30:35;;;;;;;29.63;20.30;;;9.50;99.90;;;;;;5023787;28;20202;-76
2022/01/16 12:33:10;;;;;;;26.60;19.88;;;9.40;99.90;;;;;;5022417;28;20192;-76
2022/01/16 12:35:39;;;;;;;26.25;19.17;;;9.40;99.90;;;;;;5020797;28;20193;-76
2022/01/16 12:38:29;;;;;;;28.08;19.50;;;9.40;99.90;;;;;;5027424;28;20171;-76
2022/01/16 12:41:04;;;;;;;28.67;19.48;;;9.30;99.90;;;;;;5021119;28;20197;-76
2022/01/16 12:43:33;;;;;;;25.80;18.85;;;9.30;99.90;;;;;;5013679;28;20174;-76
2022/01/16 12:46:01;;;;;;;29.00;17.42;;;9.30;99.90;;;;;;5019394;28;20173;-76
2022/01/16 12:48:27;;;;;;;25.88;18.63;;;9.30;99.90;;;;;;5010950;28;20182;-76
2022/01/16 12:51:06;;;;;;;25.35;19.20;;;9.30;99.90;;;;;;5020795;28;20224;-76
2022/01/16 12:53:49;;;;;;;28.38;18.30;;;9.30;99.90;;;;;;5022550;28;20178;-76
2022/01/16 12:56:16;;;;;;;24.70;18.02;;;9.30;99.90;;;;;;5018883;28;20280;-76
2022/01/16 12:58:42;;;;;;;23.92;18.80;;;9.40;99.90;;;;;;5020338;28;20564;-76
2022/01/16 13:01:08;;;;;;;21.50;17.43;;;9.40;99.90;;;;;;5017942;28;20188;-76
2022/01/16 13:03:35;;;;;;;26.70;18.57;;;9.40;99.90;;;;;;5018976;28;20853;-76
2022/01/16 13:06:20;;;;;;;26.80;19.63;;;9.40;99.90;;;;;;5022082;28;20588;-76
2022/01/16 13:08:52;;;;;;;30.92;20.40;;;9.40;99.90;;;;;;5022418;28;20184;-76
2022/01/16 13:11:18;;;;;;;25.38;18.88;;;9.40;99.90;;;;;;5018672;28;20182;-77
2022/01/16 13:13:44;;;;;;;22.30;16.52;;;9.40;99.90;;;;;;4987835;28;20182;-76
2022/01/16 13:16:33;;;;;;;22.17;16.60;;;9.50;99.90;;;;;;5020095;28;20198;-76
2022/01/16 13:19:11;;;;;;;21.70;15.65;;;9.40;99.90;;;;;;5020078;28;20189;-76
2022/01/16 13:21:42;;;;;;;16.15;13.15;;;9.50;99.90;;;;;;5018955;28;20162;-76